Time;durP1;ratioP1;P1;durP2;ratioP2;P2;SDS_P1;SDS_P2;PMS_P1;PMS_P2;Temp;Humidity;BMP_temperature;BMP_pressure;BME280_temperature;BME280_humidity;BME280_pressure;Samples;Min_cycle;Max_cycle;Signal;HPM_P1;HPM_P2
2022/12/17 13:06:36;;;;;;;;;;;15.50;92.50;;;;;;5097841;28;19915;-69
2022/12/17 13:09:19;;;;;;;;;;;15.40;91.40;;;;;;5094146;28;19919;-68
2022/12/17 13:11:47;;;;;;;;;;;15.40;91.70;;;;;;5077929;28;20262;-68
2022/12/17 13:14:43;;;;;;;;;;;15.40;91.00;;;;;;5075848;28;19920;-68
2022/12/17 13:17:15;;;;;;;;;;;15.50;91.20;;;;;;5091535;28;19908;-68
2022/12/17 13:19:46;;;;;;;;;;;15.50;90.60;;;;;;5112080;28;19923;-68
2022/12/17 13:22:15;;;;;;;;;;;15.50;90.90;;;;;;5112539;28;19912;-68
2022/12/17 13:24:43;;;;;;;;;;;15.60;91.00;;;;;;5112528;28;19927;-68
2022/12/17 13:27:28;;;;;;;;;;;15.60;91.40;;;;;;5103313;28;20287;-69
2022/12/17 13:29:55;;;;;;;;;;;15.70;91.70;;;;;;5111655;28;19923;-68
2022/12/17 13:32:23;;;;;;;;;;;15.70;91.90;;;;;;5094854;28;19959;-68
2022/12/17 13:34:52;;;;;;;;;;;15.60;91.60;;;;;;5094429;28;19908;-68
2022/12/17 13:37:37;;;;;;;;;;;15.60;91.20;;;;;;5112667;28;19972;-68
2022/12/17 13:40:04;;;;;;;;;;;15.60;90.50;;;;;;5093425;28;19912;-68
2022/12/17 13:44:56;;;;;;;;;;;15.60;90.30;;;;;;5100109;28;20053;-68
2022/12/17 13:47:23;;;;;;;;;;;15.70;91.10;;;;;;5090097;28;19923;-68
2022/12/17 13:49:53;;;;;;;;;;;15.70;91.30;;;;;;5082649;28;20054;-68
2022/12/17 13:52:21;;;;;;;;;;;15.70;91.20;;;;;;5092006;28;19912;-68
2022/12/17 13:54:47;;;;;;;;;;;15.70;91.60;;;;;;5076648;28;19908;-68
2022/12/17 13:57:18;;;;;;;;;;;15.70;91.60;;;;;;5092322;28;19966;-68
2022/12/17 13:59:51;;;;;;;;;;;15.60;91.70;;;;;;5081098;28;19916;-68
2022/12/17 14:02:44;;;;;;;;;;;15.60;91.90;;;;;;5090248;28;20378;-68
2022/12/17 14:05:26;;;;;;;;;;;15.60;92.00;;;;;;5088064;28;20002;-68
2022/12/17 14:07:53;;;;;;;;;;;15.50;91.10;;;;;;5080735;28;20366;-68
2022/12/17 14:10:20;;;;;;;;;;;15.50;91.10;;;;;;5076112;28;20298;-68
2022/12/17 14:12:46;;;;;;;;;;;15.60;90.70;;;;;;5084821;28;19991;-68
2022/12/17 14:15:19;;;;;;;;;;;15.60;90.90;;;;;;5089719;28;19919;-68
2022/12/17 14:17:46;;;;;;;;;;;15.70;91.00;;;;;;5091963;28;19912;-68
2022/12/17 14:20:14;;;;;;;;;;;15.60;91.10;;;;;;5075184;28;19912;-68
2022/12/17 14:22:41;;;;;;;;;;;15.60;91.20;;;;;;5073689;28;19915;-68
2022/12/17 14:25:18;;;;;;;;;;;15.60;91.30;;;;;;5091651;28;19912;-68
2022/12/17 14:27:59;;;;;;;;;;;15.50;91.30;;;;;;5069595;28;19912;-68
2022/12/17 14:30:31;;;;;;;;;;;15.50;92.70;;;;;;5091293;28;19908;-69
2022/12/17 14:32:58;;;;;;;;;;;15.50;93.70;;;;;;5091927;28;19908;-69
2022/12/17 14:35:28;;;;;;;;;;;15.50;94.20;;;;;;5077558;28;19965;-69
2022/12/17 14:37:55;;;;;;;;;;;15.40;94.30;;;;;;5075845;28;20487;-69
2022/12/17 14:40:22;;;;;;;;;;;15.30;94.70;;;;;;5091671;28;19914;-69
2022/12/17 14:42:49;;;;;;;;;;;15.30;94.80;;;;;;5083074;28;19937;-69
2022/12/17 14:45:16;;;;;;;;;;;15.30;94.90;;;;;;5072600;28;19920;-69
2022/12/17 14:47:56;;;;;;;;;;;15.20;95.00;;;;;;5087363;28;20370;-69
2022/12/17 14:50:24;;;;;;;;;;;15.20;95.00;;;;;;5072940;28;19908;-69
2022/12/17 14:52:54;;;;;;;;;;;15.20;95.20;;;;;;5081026;28;19916;-69
2022/12/17 14:55:26;;;;;;;;;;;15.10;95.10;;;;;;5071839;28;19931;-69
2022/12/17 14:58:06;;;;;;;;;;;15.10;95.30;;;;;;5087494;28;19999;-69
2022/12/17 15:00:33;;;;;;;;;;;15.10;95.40;;;;;;5083598;28;20020;-69
2022/12/17 15:03:00;;;;;;;;;;;15.10;95.30;;;;;;5088891;28;19963;-69
2022/12/17 15:05:26;;;;;;;;;;;15.00;95.30;;;;;;5090180;28;20283;-69
2022/12/17 15:07:54;;;;;;;;;;;15.00;95.30;;;;;;5090807;28;19908;-69
2022/12/17 15:10:21;;;;;;;;;;;14.90;95.40;;;;;;5095421;28;19912;-68
2022/12/17 15:12:50;;;;;;;;;;;14.90;95.20;;;;;;5095187;28;19946;-67
2022/12/17 15:15:16;;;;;;;;;;;14.80;95.10;;;;;;5102493;28;19920;-69
2022/12/17 15:17:43;;;;;;;;;;;14.80;95.30;;;;;;5095296;28;19919;-69
2022/12/17 15:20:15;;;;;;;;;;;14.80;95.20;;;;;;5096797;28;19912;-68
2022/12/17 15:22:42;;;;;;;;;;;14.70;95.20;;;;;;5097338;28;19922;-69
2022/12/17 15:25:12;;;;;;;;;;;14.70;95.40;;;;;;5115462;28;19911;-69
2022/12/17 15:27:39;;;;;;;;;;;14.70;95.40;;;;;;5113797;28;20025;-69
2022/12/17 15:30:06;;;;;;;;;;;14.80;95.50;;;;;;5114811;28;19961;-68
2022/12/17 15:32:32;;;;;;;;;;;14.70;95.40;;;;;;5115100;28;19943;-69
2022/12/17 15:34:59;;;;;;;;;;;14.80;95.40;;;;;;5113150;28;19932;-68
2022/12/17 15:37:25;;;;;;;;;;;14.80;95.50;;;;;;5114337;28;19907;-69
2022/12/17 15:39:52;;;;;;;;;;;14.80;95.50;;;;;;5115132;28;19908;-69
2022/12/17 15:45:04;;;;;;;;;;;14.80;95.60;;;;;;5103337;28;19927;-69
2022/12/17 15:47:30;;;;;;;;;;;14.80;95.50;;;;;;5112970;28;19926;-69
2022/12/17 15:49:57;;;;;;;;;;;14.80;95.60;;;;;;5114745;28;19915;-69
2022/12/17 15:52:23;;;;;;;;;;;14.80;95.50;;;;;;5114740;28;19951;-68
2022/12/17 15:54:50;;;;;;;;;;;14.80;95.40;;;;;;5109027;28;19915;-68
2022/12/17 15:57:17;;;;;;;;;;;14.70;95.40;;;;;;5114569;28;19912;-68
2022/12/17 15:59:43;;;;;;;;;;;14.80;95.80;;;;;;5114727;28;19907;-69
2022/12/17 16:02:10;;;;;;;;;;;14.80;95.80;;;;;;5114309;28;20305;-69
2022/12/17 16:04:37;;;;;;;;;;;14.80;95.90;;;;;;5112446;28;19916;-68
2022/12/17 16:07:03;;;;;;;;;;;14.70;96.00;;;;;;5096684;28;20010;-68
2022/12/17 16:09:30;;;;;;;;;;;14.70;96.10;;;;;;5095790;28;19922;-68
2022/12/17 16:11:57;;;;;;;;;;;14.70;96.20;;;;;;5094747;28;19907;-68
2022/12/17 16:14:23;;;;;;;;;;;14.70;96.20;;;;;;5094460;28;19919;-68
2022/12/17 16:16:50;;;;;;;;;;;14.70;96.30;;;;;;5090954;28;19920;-68
2022/12/17 16:19:17;;;;;;;;;;;14.70;96.40;;;;;;5095820;28;19908;-69
2022/12/17 16:21:43;;;;;;;;;;;14.70;96.40;;;;;;5114142;28;19908;-68
2022/12/17 16:24:10;;;;;;;;;;;14.70;96.40;;;;;;5113250;28;19962;-68
2022/12/17 16:26:37;;;;;;;;;;;14.70;96.50;;;;;;5114094;28;20278;-68
2022/12/17 16:29:03;;;;;;;;;;;14.70;96.50;;;;;;5078551;28;19908;-68
2022/12/17 16:31:30;;;;;;;;;;;14.60;96.50;;;;;;5113985;28;19912;-68
2022/12/17 16:33:56;;;;;;;;;;;14.70;96.50;;;;;;5105694;28;20241;-69
2022/12/17 16:36:23;;;;;;;;;;;14.60;96.60;;;;;;5114062;28;19916;-69
2022/12/17 16:38:50;;;;;;;;;;;14.70;96.60;;;;;;5113381;28;19919;-69
2022/12/17 16:41:17;;;;;;;;;;;14.70;96.70;;;;;;5091311;28;19923;-69
2022/12/17 16:43:44;;;;;;;;;;;14.70;96.80;;;;;;5099869;28;20137;-68
2022/12/17 16:48:36;;;;;;;;;;;14.70;96.70;;;;;;5111100;28;20012;-69
2022/12/17 16:51:14;;;;;;;;;;;14.70;96.80;;;;;;5113371;28;19912;-69
2022/12/17 16:53:40;;;;;;;;;;;14.70;96.80;;;;;;5105801;28;20346;-69
2022/12/17 16:56:07;;;;;;;;;;;14.70;96.90;;;;;;5104687;28;19911;-70
2022/12/17 16:58:33;;;;;;;;;;;14.70;96.90;;;;;;5113371;28;19908;-69
2022/12/17 17:01:03;;;;;;;;;;;14.70;96.90;;;;;;5113045;28;19918;-70
2022/12/17 17:03:30;;;;;;;;;;;14.60;96.90;;;;;;5106949;28;20282;-70
2022/12/17 17:05:59;;;;;;;;;;;14.70;96.90;;;;;;5108271;28;19908;-70
2022/12/17 17:08:25;;;;;;;;;;;14.60;96.90;;;;;;5113139;28;19918;-69
2022/12/17 17:10:52;;;;;;;;;;;14.60;97.00;;;;;;5113270;28;20324;-69
2022/12/17 17:13:18;;;;;;;;;;;14.60;97.00;;;;;;5112394;28;19912;-70
2022/12/17 17:15:45;;;;;;;;;;;14.50;96.90;;;;;;5112741;28;19951;-70
2022/12/17 17:18:12;;;;;;;;;;;14.50;96.90;;;;;;5106962;28;20003;-69
2022/12/17 17:20:38;;;;;;;;;;;14.50;97.00;;;;;;5111980;28;19938;-70
2022/12/17 17:23:05;;;;;;;;;;;14.50;97.00;;;;;;5111338;28;19927;-70
2022/12/17 17:25:31;;;;;;;;;;;14.50;96.90;;;;;;5111395;28;20003;-69
2022/12/17 17:27:58;;;;;;;;;;;14.50;97.10;;;;;;5112463;28;20002;-69
2022/12/17 17:30:26;;;;;;;;;;;14.50;97.10;;;;;;5112344;28;19915;-69
2022/12/17 17:32:52;;;;;;;;;;;14.50;97.00;;;;;;5107595;28;20014;-69
2022/12/17 17:35:19;;;;;;;;;;;14.50;97.00;;;;;;5107652;28;19911;-70
2022/12/17 17:37:45;;;;;;;;;;;14.50;97.10;;;;;;5112593;28;19912;-69
2022/12/17 17:40:12;;;;;;;;;;;14.40;97.00;;;;;;5106057;28;19919;-69
2022/12/17 17:42:39;;;;;;;;;;;14.40;97.00;;;;;;5110675;28;19907;-69
2022/12/17 17:45:07;;;;;;;;;;;14.30;97.00;;;;;;5104301;28;19912;-69
2022/12/17 17:50:06;;;;;;;;;;;14.30;97.00;;;;;;5102680;28;19965;-69
2022/12/17 17:52:33;;;;;;;;;;;14.30;97.00;;;;;;5102444;28;19915;-68
2022/12/17 17:54:59;;;;;;;;;;;14.40;97.10;;;;;;5083122;28;19958;-68
2022/12/17 17:57:26;;;;;;;;;;;14.40;97.10;;;;;;5110849;28;20096;-69
2022/12/17 17:59:52;;;;;;;;;;;14.40;97.00;;;;;;5112310;28;19914;-69
2022/12/17 18:02:19;;;;;;;;;;;14.40;97.00;;;;;;5112646;28;19908;-69
2022/12/17 18:04:46;;;;;;;;;;;14.40;97.10;;;;;;5098691;28;19981;-69
2022/12/17 18:07:12;;;;;;;;;;;14.30;97.00;;;;;;5112531;28;19912;-70
2022/12/17 18:09:39;;;;;;;;;;;14.30;97.00;;;;;;5112313;28;19914;-70
2022/12/17 18:14:52;;;;;;;;;;;14.20;97.00;;;;;;5074628;28;20378;-68
2022/12/17 18:17:19;;;;;;;;;;;14.20;97.00;;;;;;5112258;28;19951;-69
2022/12/17 18:19:47;;;;;;;;;;;14.20;97.00;;;;;;5110539;28;20292;-68
2022/12/17 18:22:14;;;;;;;;;;;14.20;97.00;;;;;;5112119;28;20336;-70
2022/12/17 18:24:40;;;;;;;;;;;14.20;97.00;;;;;;5087962;28;19972;-70
2022/12/17 18:27:07;;;;;;;;;;;14.20;97.00;;;;;;5112324;28;19915;-70
2022/12/17 18:29:33;;;;;;;;;;;14.20;97.10;;;;;;5112237;28;19912;-70
2022/12/17 18:32:00;;;;;;;;;;;14.20;97.10;;;;;;5113888;28;19937;-70
2022/12/17 18:34:27;;;;;;;;;;;14.20;97.10;;;;;;5104810;28;19918;-70
2022/12/17 18:36:53;;;;;;;;;;;14.20;97.10;;;;;;5115754;28;20255;-71
2022/12/17 18:39:21;;;;;;;;;;;14.20;97.20;;;;;;5107186;28;19916;-72
2022/12/17 18:44:33;;;;;;;;;;;14.20;97.20;;;;;;5097404;28;20302;-71
2022/12/17 18:46:59;;;;;;;;;;;14.20;97.30;;;;;;5094867;28;20381;-71
2022/12/17 18:49:26;;;;;;;;;;;14.20;97.30;;;;;;5111508;28;19924;-70
2022/12/17 18:51:53;;;;;;;;;;;14.20;97.30;;;;;;5112449;28;20036;-70
2022/12/17 18:54:21;;;;;;;;;;;14.20;97.40;;;;;;5112690;28;19912;-70
2022/12/17 18:56:47;;;;;;;;;;;14.20;97.40;;;;;;5110741;28;20377;-70
2022/12/17 18:59:15;;;;;;;;;;;14.20;97.40;;;;;;5090977;28;20333;-70
2022/12/17 19:01:41;;;;;;;;;;;14.20;97.30;;;;;;5112760;28;20616;-70
2022/12/17 19:04:09;;;;;;;;;;;14.20;97.40;;;;;;5112589;28;20251;-71
2022/12/17 19:06:36;;;;;;;;;;;14.20;97.30;;;;;;5112708;28;20012;-71
2022/12/17 19:09:02;;;;;;;;;;;14.20;97.40;;;;;;5093672;28;20057;-71
2022/12/17 19:11:29;;;;;;;;;;;14.10;97.40;;;;;;5109704;28;19916;-71
2022/12/17 19:13:56;;;;;;;;;;;14.10;97.30;;;;;;5111195;28;19916;-71
2022/12/17 19:16:26;;;;;;;;;;;14.10;97.30;;;;;;5112754;28;19916;-71
2022/12/17 19:18:53;;;;;;;;;;;14.10;97.30;;;;;;5094627;28;19918;-70
2022/12/17 19:21:20;;;;;;;;;;;14.10;97.40;;;;;;5111036;28;19916;-70
2022/12/17 19:23:47;;;;;;;;;;;14.10;97.40;;;;;;5104812;28;19963;-70
2022/12/17 19:26:17;;;;;;;;;;;14.20;97.50;;;;;;5112499;28;19952;-70
2022/12/17 19:28:45;;;;;;;;;;;14.10;97.50;;;;;;5110727;28;19955;-71
2022/12/17 19:31:12;;;;;;;;;;;14.10;97.40;;;;;;5112822;28;20030;-72
2022/12/17 19:33:39;;;;;;;;;;;14.10;97.40;;;;;;5109346;28;19919;-72
2022/12/17 19:36:13;;;;;;;;;;;14.20;97.50;;;;;;5108259;27;19918;-73
2022/12/17 19:38:39;;;;;;;;;;;14.10;97.50;;;;;;5108409;27;19952;-72
2022/12/17 19:41:07;;;;;;;;;;;14.20;97.50;;;;;;5123635;27;19911;-72
2022/12/17 19:43:34;;;;;;;;;;;14.20;97.60;;;;;;5095765;28;19923;-71
2022/12/17 19:46:01;;;;;;;;;;;14.20;97.50;;;;;;5129688;27;20010;-69
2022/12/17 19:48:29;;;;;;;;;;;14.20;97.50;;;;;;5100551;28;20370;-69
2022/12/17 19:50:59;;;;;;;;;;;14.20;97.50;;;;;;5105364;28;20572;-70
2022/12/17 19:53:26;;;;;;;;;;;14.20;97.50;;;;;;5101868;28;20453;-71
2022/12/17 19:55:53;;;;;;;;;;;14.20;97.50;;;;;;5082605;27;20385;-72
2022/12/17 19:58:20;;;;;;;;;;;14.20;97.60;;;;;;5107121;28;19915;-73
2022/12/17 20:00:47;;;;;;;;;;;14.20;97.60;;;;;;5093882;27;20385;-73
2022/12/17 20:03:14;;;;;;;;;;;14.20;97.60;;;;;;5112088;27;19924;-72
2022/12/17 20:05:44;;;;;;;;;;;14.20;97.60;;;;;;5114570;27;19912;-72
2022/12/17 20:08:10;;;;;;;;;;;14.20;97.60;;;;;;5093686;28;19911;-72
2022/12/17 20:10:37;;;;;;;;;;;14.20;97.60;;;;;;5114196;27;19978;-72
2022/12/17 20:13:04;;;;;;;;;;;14.20;97.60;;;;;;5111006;28;19908;-73
2022/12/17 20:15:30;;;;;;;;;;;14.20;97.50;;;;;;5092052;28;19916;-72
2022/12/17 20:17:57;;;;;;;;;;;14.20;97.60;;;;;;5111235;28;19915;-72
2022/12/17 20:20:23;;;;;;;;;;;14.20;97.50;;;;;;5112205;27;19911;-71
2022/12/17 20:22:50;;;;;;;;;;;14.30;97.60;;;;;;5109307;28;19912;-71
2022/12/17 20:25:17;;;;;;;;;;;14.20;97.60;;;;;;5111030;28;20435;-71
2022/12/17 20:27:43;;;;;;;;;;;14.30;97.60;;;;;;5110419;28;19915;-71
2022/12/17 20:30:10;;;;;;;;;;;14.30;97.60;;;;;;5110261;28;20338;-71
2022/12/17 20:32:37;;;;;;;;;;;14.30;97.60;;;;;;5092724;28;19961;-71
2022/12/17 20:35:04;;;;;;;;;;;14.30;97.50;;;;;;5110166;28;19912;-71
2022/12/17 20:37:31;;;;;;;;;;;14.30;97.60;;;;;;5111432;28;19981;-71
2022/12/17 20:39:57;;;;;;;;;;;14.30;97.60;;;;;;5110221;28;20369;-71
2022/12/17 20:42:24;;;;;;;;;;;14.30;97.60;;;;;;5110242;28;20319;-71
2022/12/17 20:44:50;;;;;;;;;;;14.40;97.60;;;;;;5110750;28;19923;-71
2022/12/17 20:47:17;;;;;;;;;;;14.40;97.60;;;;;;5110033;28;19996;-72
2022/12/17 21:21:52;;;;;;;;;;;14.40;97.60;;;;;;5071491;28;20480;-68
2022/12/17 21:24:19;;;;;;;;;;;14.50;97.70;;;;;;5104132;28;19934;-70
2022/12/17 21:26:46;;;;;;;;;;;14.50;97.70;;;;;;5074628;28;19915;-70
2022/12/17 21:29:13;;;;;;;;;;;14.50;97.80;;;;;;5092317;28;19911;-69
2022/12/17 21:31:41;;;;;;;;;;;14.60;97.80;;;;;;5109578;28;20421;-70
2022/12/17 21:34:10;;;;;;;;;;;14.60;97.80;;;;;;5091729;28;19912;-70
2022/12/17 21:36:36;;;;;;;;;;;14.60;97.80;;;;;;5091993;28;19915;-70
2022/12/17 21:39:03;;;;;;;;;;;14.60;97.80;;;;;;5106617;28;19961;-70
2022/12/17 21:41:33;;;;;;;;;;;14.50;97.70;;;;;;5101606;28;19912;-70
2022/12/17 21:44:00;;;;;;;;;;;14.50;97.70;;;;;;5091816;27;20293;-70
2022/12/17 21:46:27;;;;;;;;;;;14.50;97.70;;;;;;5091411;28;19953;-69
2022/12/17 21:48:54;;;;;;;;;;;14.40;97.70;;;;;;5109809;28;19920;-69
2022/12/17 21:51:21;;;;;;;;;;;14.40;97.70;;;;;;5099439;28;20423;-69
2022/12/17 21:53:47;;;;;;;;;;;14.40;97.70;;;;;;5107673;28;19912;-69
2022/12/17 21:56:15;;;;;;;;;;;14.50;97.80;;;;;;5107014;28;20022;-69
2022/12/17 21:58:42;;;;;;;;;;;14.60;97.80;;;;;;5088885;28;20293;-70
2022/12/17 22:01:13;;;;;;;;;;;14.60;97.70;;;;;;5100181;28;20378;-69
2022/12/17 22:03:40;;;;;;;;;;;14.60;97.80;;;;;;5104266;28;20289;-69
2022/12/17 22:06:10;;;;;;;;;;;14.70;97.80;;;;;;5075143;28;19918;-70
2022/12/17 22:08:37;;;;;;;;;;;14.60;97.80;;;;;;5126230;27;19923;-69
2022/12/17 22:11:10;;;;;;;;;;;14.60;97.70;;;;;;5128815;27;19915;-69
2022/12/17 22:16:22;;;;;;;;;;;14.50;97.70;;;;;;5094130;27;19965;-70
2022/12/17 22:18:49;;;;;;;;;;;14.60;97.80;;;;;;5117467;27;19914;-71
2022/12/17 22:21:16;;;;;;;;;;;14.70;97.80;;;;;;5114388;28;19916;-70
2022/12/17 22:23:46;;;;;;;;;;;14.60;97.80;;;;;;5095862;28;19924;-69
2022/12/17 22:26:14;;;;;;;;;;;14.60;97.70;;;;;;5105145;28;20344;-70
2022/12/17 22:28:42;;;;;;;;;;;14.70;97.90;;;;;;5098112;28;20262;-70
2022/12/17 22:33:57;;;;;;;;;;;14.80;97.90;;;;;;5108922;28;20047;-70
2022/12/17 22:36:23;;;;;;;;;;;15.00;98.00;;;;;;5115473;28;19912;-70
2022/12/17 22:38:50;;;;;;;;;;;15.00;97.90;;;;;;5109031;28;19912;-70
2022/12/17 22:44:01;;;;;;;;;;;15.10;97.80;;;;;;5115505;27;19930;-71
2022/12/17 22:46:31;;;;;;;;;;;15.20;97.90;;;;;;5096843;28;20377;-71
2022/12/17 22:48:58;;;;;;;;;;;15.30;97.90;;;;;;5111106;27;19923;-71
2022/12/17 22:51:25;;;;;;;;;;;15.20;97.60;;;;;;5115964;27;19922;-71
2022/12/17 22:53:51;;;;;;;;;;;15.20;97.60;;;;;;5096129;28;19924;-70
2022/12/17 22:56:18;;;;;;;;;;;15.20;97.10;;;;;;5111747;28;19912;-70
2022/12/17 22:58:45;;;;;;;;;;;15.20;96.70;;;;;;5097003;28;20289;-69
2022/12/17 23:01:12;;;;;;;;;;;15.20;96.50;;;;;;5116180;27;19916;-69
2022/12/17 23:57:25;;;;;;;;;;;16.70;89.20;;;;;;5052206;28;19935;-68
2022/12/17 23:59:52;;;;;;;;;;;16.60;87.20;;;;;;5073488;28;19998;-67
